Terminal Aerodrome Forecast
Issued by NWS

Home | Current Version | Previous Version | Text Only | Print | Product List | Glossary On
Versions: 1 2 3 4 5 6 7 8 9 10 11 12 13
000
FTUS43 KICT 192300
TAFRSL
TAF
KRSL 192320Z 2000/2024 19022G32KT P6SM BKN250
     FM200200 17015KT P6SM SCT120 BKN200
     FM201500 18017G24KT P6SM SCT070 BKN120=

USA.gov is the U.S. government's official web portal to all federal, state and local government web resources and services.